sensor_id;sensor_type;location;lat;lon;timestamp;P1;durP1;ratioP1;P2;durP2;ratioP2
66727;SDS011;53641;44.274;19.890;2022-07-23T00:01:29;6.97;;;3.58;;
66727;SDS011;53641;44.274;19.890;2022-07-23T00:03:55;12.48;;;3.75;;
66727;SDS011;53641;44.274;19.890;2022-07-23T00:06:21;7.63;;;4.50;;
66727;SDS011;53641;44.274;19.890;2022-07-23T00:08:47;15.13;;;4.03;;
66727;SDS011;53641;44.274;19.890;2022-07-23T00:11:13;8.23;;;2.85;;
66727;SDS011;53641;44.274;19.890;2022-07-23T00:13:40;10.27;;;2.92;;
66727;SDS011;53641;44.274;19.890;2022-07-23T00:16:06;9.68;;;2.80;;
66727;SDS011;53641;44.274;19.890;2022-07-23T00:18:32;13.18;;;2.70;;
66727;SDS011;53641;44.274;19.890;2022-07-23T00:20:58;7.18;;;3.10;;
66727;SDS011;53641;44.274;19.890;2022-07-23T00:23:24;6.13;;;2.75;;
66727;SDS011;53641;44.274;19.890;2022-07-23T00:25:50;6.28;;;2.40;;
66727;SDS011;53641;44.274;19.890;2022-07-23T00:28:17;6.75;;;2.58;;
66727;SDS011;53641;44.274;19.890;2022-07-23T00:30:45;6.57;;;2.42;;
66727;SDS011;53641;44.274;19.890;2022-07-23T00:33:10;10.35;;;3.13;;
66727;SDS011;53641;44.274;19.890;2022-07-23T00:35:37;6.82;;;3.03;;
66727;SDS011;53641;44.274;19.890;2022-07-23T00:38:06;5.13;;;2.55;;
66727;SDS011;53641;44.274;19.890;2022-07-23T00:40:32;7.38;;;3.20;;
66727;SDS011;53641;44.274;19.890;2022-07-23T00:42:59;7.75;;;2.65;;
66727;SDS011;53641;44.274;19.890;2022-07-23T00:45:25;7.28;;;3.28;;
66727;SDS011;53641;44.274;19.890;2022-07-23T00:47:51;6.85;;;2.85;;
66727;SDS011;53641;44.274;19.890;2022-07-23T00:50:17;6.95;;;2.60;;
66727;SDS011;53641;44.274;19.890;2022-07-23T00:52:43;4.68;;;2.42;;
66727;SDS011;53641;44.274;19.890;2022-07-23T00:55:10;4.15;;;2.28;;
66727;SDS011;53641;44.274;19.890;2022-07-23T00:57:37;7.78;;;2.40;;
66727;SDS011;53641;44.274;19.890;2022-07-23T01:00:04;8.32;;;2.47;;
66727;SDS011;53641;44.274;19.890;2022-07-23T01:02:32;9.70;;;3.38;;
66727;SDS011;53641;44.274;19.890;2022-07-23T01:04:58;5.90;;;2.45;;
66727;SDS011;53641;44.274;19.890;2022-07-23T01:07:24;9.88;;;2.65;;
66727;SDS011;53641;44.274;19.890;2022-07-23T01:09:50;5.70;;;2.40;;
66727;SDS011;53641;44.274;19.890;2022-07-23T01:12:17;5.05;;;2.97;;
66727;SDS011;53641;44.274;19.890;2022-07-23T01:14:43;8.50;;;2.83;;
66727;SDS011;53641;44.274;19.890;2022-07-23T01:17:09;8.35;;;2.60;;
66727;SDS011;53641;44.274;19.890;2022-07-23T01:19:35;14.20;;;2.97;;
66727;SDS011;53641;44.274;19.890;2022-07-23T01:22:04;7.38;;;2.53;;
66727;SDS011;53641;44.274;19.890;2022-07-23T01:24:30;7.60;;;2.55;;
66727;SDS011;53641;44.274;19.890;2022-07-23T01:26:56;7.68;;;2.92;;
66727;SDS011;53641;44.274;19.890;2022-07-23T01:29:22;5.07;;;2.20;;
66727;SDS011;53641;44.274;19.890;2022-07-23T01:31:48;6.70;;;2.85;;
66727;SDS011;53641;44.274;19.890;2022-07-23T01:34:14;7.68;;;2.45;;
66727;SDS011;53641;44.274;19.890;2022-07-23T01:36:40;6.68;;;2.50;;
66727;SDS011;53641;44.274;19.890;2022-07-23T01:39:06;6.40;;;2.30;;
66727;SDS011;53641;44.274;19.890;2022-07-23T01:41:33;8.88;;;2.67;;
66727;SDS011;53641;44.274;19.890;2022-07-23T01:43:59;7.85;;;3.20;;
66727;SDS011;53641;44.274;19.890;2022-07-23T01:46:25;6.03;;;2.72;;
66727;SDS011;53641;44.274;19.890;2022-07-23T01:48:51;6.47;;;2.53;;
66727;SDS011;53641;44.274;19.890;2022-07-23T01:51:17;11.20;;;3.33;;
66727;SDS011;53641;44.274;19.890;2022-07-23T01:53:42;7.28;;;2.72;;
66727;SDS011;53641;44.274;19.890;2022-07-23T01:56:08;5.55;;;2.65;;
66727;SDS011;53641;44.274;19.890;2022-07-23T01:58:34;9.90;;;2.80;;
66727;SDS011;53641;44.274;19.890;2022-07-23T02:01:00;5.53;;;2.50;;
66727;SDS011;53641;44.274;19.890;2022-07-23T02:03:25;6.72;;;2.70;;
66727;SDS011;53641;44.274;19.890;2022-07-23T02:05:52;5.15;;;2.17;;
66727;SDS011;53641;44.274;19.890;2022-07-23T02:08:18;5.68;;;2.85;;
66727;SDS011;53641;44.274;19.890;2022-07-23T02:10:44;6.38;;;2.80;;
66727;SDS011;53641;44.274;19.890;2022-07-23T02:13:10;5.13;;;2.65;;
66727;SDS011;53641;44.274;19.890;2022-07-23T02:15:36;6.32;;;2.47;;
66727;SDS011;53641;44.274;19.890;2022-07-23T02:18:02;6.20;;;2.58;;
66727;SDS011;53641;44.274;19.890;2022-07-23T02:20:28;4.32;;;2.42;;
66727;SDS011;53641;44.274;19.890;2022-07-23T02:22:54;4.45;;;2.40;;
66727;SDS011;53641;44.274;19.890;2022-07-23T02:25:20;5.10;;;2.50;;
66727;SDS011;53641;44.274;19.890;2022-07-23T02:27:46;9.45;;;2.70;;
66727;SDS011;53641;44.274;19.890;2022-07-23T02:30:11;6.70;;;2.67;;
66727;SDS011;53641;44.274;19.890;2022-07-23T02:32:38;5.95;;;2.47;;
66727;SDS011;53641;44.274;19.890;2022-07-23T02:35:04;6.57;;;2.72;;
66727;SDS011;53641;44.274;19.890;2022-07-23T02:37:31;6.80;;;2.47;;
66727;SDS011;53641;44.274;19.890;2022-07-23T02:39:57;4.63;;;2.50;;
66727;SDS011;53641;44.274;19.890;2022-07-23T02:42:23;7.60;;;2.75;;
66727;SDS011;53641;44.274;19.890;2022-07-23T02:44:49;7.28;;;2.30;;
66727;SDS011;53641;44.274;19.890;2022-07-23T02:47:15;3.90;;;2.22;;
66727;SDS011;53641;44.274;19.890;2022-07-23T02:49:41;8.35;;;3.08;;
66727;SDS011;53641;44.274;19.890;2022-07-23T02:52:07;9.93;;;2.35;;
66727;SDS011;53641;44.274;19.890;2022-07-23T02:54:35;9.77;;;2.80;;
66727;SDS011;53641;44.274;19.890;2022-07-23T02:57:01;7.78;;;2.40;;
66727;SDS011;53641;44.274;19.890;2022-07-23T02:59:27;8.23;;;2.40;;
66727;SDS011;53641;44.274;19.890;2022-07-23T03:01:52;4.63;;;2.95;;
66727;SDS011;53641;44.274;19.890;2022-07-23T03:04:18;5.88;;;2.60;;
66727;SDS011;53641;44.274;19.890;2022-07-23T03:06:44;7.20;;;2.60;;
66727;SDS011;53641;44.274;19.890;2022-07-23T03:09:10;7.53;;;3.10;;
66727;SDS011;53641;44.274;19.890;2022-07-23T03:11:35;5.72;;;2.50;;
66727;SDS011;53641;44.274;19.890;2022-07-23T03:14:01;6.13;;;2.90;;
66727;SDS011;53641;44.274;19.890;2022-07-23T03:16:27;5.60;;;2.83;;
66727;SDS011;53641;44.274;19.890;2022-07-23T03:18:53;7.22;;;3.40;;
66727;SDS011;53641;44.274;19.890;2022-07-23T03:21:19;7.65;;;3.33;;
66727;SDS011;53641;44.274;19.890;2022-07-23T03:23:49;8.68;;;2.90;;
66727;SDS011;53641;44.274;19.890;2022-07-23T03:26:15;5.22;;;3.10;;
66727;SDS011;53641;44.274;19.890;2022-07-23T03:28:41;9.60;;;3.85;;
66727;SDS011;53641;44.274;19.890;2022-07-23T03:31:07;8.77;;;3.33;;
66727;SDS011;53641;44.274;19.890;2022-07-23T03:33:33;4.72;;;2.70;;
66727;SDS011;53641;44.274;19.890;2022-07-23T03:35:58;8.57;;;3.05;;
66727;SDS011;53641;44.274;19.890;2022-07-23T03:38:24;10.65;;;3.00;;
66727;SDS011;53641;44.274;19.890;2022-07-23T03:40:50;6.68;;;2.80;;
66727;SDS011;53641;44.274;19.890;2022-07-23T03:43:16;5.65;;;2.58;;
66727;SDS011;53641;44.274;19.890;2022-07-23T03:45:42;7.35;;;2.40;;
66727;SDS011;53641;44.274;19.890;2022-07-23T03:48:07;6.22;;;2.80;;
66727;SDS011;53641;44.274;19.890;2022-07-23T03:50:33;3.80;;;2.30;;
66727;SDS011;53641;44.274;19.890;2022-07-23T03:52:59;6.63;;;3.28;;
66727;SDS011;53641;44.274;19.890;2022-07-23T03:55:25;6.70;;;3.22;;
66727;SDS011;53641;44.274;19.890;2022-07-23T03:57:51;9.27;;;2.47;;
66727;SDS011;53641;44.274;19.890;2022-07-23T04:00:17;7.65;;;2.83;;
66727;SDS011;53641;44.274;19.890;2022-07-23T04:02:43;5.55;;;2.65;;
66727;SDS011;53641;44.274;19.890;2022-07-23T04:05:08;6.05;;;2.88;;
66727;SDS011;53641;44.274;19.890;2022-07-23T04:07:34;10.40;;;2.75;;
66727;SDS011;53641;44.274;19.890;2022-07-23T04:10:00;7.68;;;3.03;;
66727;SDS011;53641;44.274;19.890;2022-07-23T04:12:26;4.88;;;2.55;;
66727;SDS011;53641;44.274;19.890;2022-07-23T04:14:52;7.50;;;2.60;;
66727;SDS011;53641;44.274;19.890;2022-07-23T04:17:17;9.98;;;2.90;;
66727;SDS011;53641;44.274;19.890;2022-07-23T04:19:43;9.02;;;2.70;;
66727;SDS011;53641;44.274;19.890;2022-07-23T04:22:10;7.68;;;3.05;;
66727;SDS011;53641;44.274;19.890;2022-07-23T04:24:36;4.38;;;2.83;;
66727;SDS011;53641;44.274;19.890;2022-07-23T04:27:03;3.90;;;2.80;;
66727;SDS011;53641;44.274;19.890;2022-07-23T04:29:28;5.43;;;3.20;;
66727;SDS011;53641;44.274;19.890;2022-07-23T04:31:54;12.43;;;4.43;;
66727;SDS011;53641;44.274;19.890;2022-07-23T04:34:20;8.40;;;3.00;;
66727;SDS011;53641;44.274;19.890;2022-07-23T04:36:46;7.90;;;3.38;;
66727;SDS011;53641;44.274;19.890;2022-07-23T04:39:13;5.30;;;2.65;;
66727;SDS011;53641;44.274;19.890;2022-07-23T04:41:39;7.40;;;3.08;;
66727;SDS011;53641;44.274;19.890;2022-07-23T04:44:04;22.88;;;3.17;;
66727;SDS011;53641;44.274;19.890;2022-07-23T04:46:30;8.48;;;2.83;;
66727;SDS011;53641;44.274;19.890;2022-07-23T04:48:56;12.57;;;3.35;;
66727;SDS011;53641;44.274;19.890;2022-07-23T04:51:22;9.38;;;3.22;;
66727;SDS011;53641;44.274;19.890;2022-07-23T04:53:48;6.07;;;3.33;;
66727;SDS011;53641;44.274;19.890;2022-07-23T04:56:14;8.25;;;3.13;;
66727;SDS011;53641;44.274;19.890;2022-07-23T04:58:40;9.85;;;3.58;;
66727;SDS011;53641;44.274;19.890;2022-07-23T05:01:06;10.65;;;2.67;;
66727;SDS011;53641;44.274;19.890;2022-07-23T05:03:32;6.63;;;2.80;;
66727;SDS011;53641;44.274;19.890;2022-07-23T05:05:57;6.57;;;3.00;;
66727;SDS011;53641;44.274;19.890;2022-07-23T05:08:23;11.43;;;3.10;;
66727;SDS011;53641;44.274;19.890;2022-07-23T05:10:49;5.03;;;2.70;;
66727;SDS011;53641;44.274;19.890;2022-07-23T05:13:15;8.18;;;3.00;;
66727;SDS011;53641;44.274;19.890;2022-07-23T05:15:41;9.00;;;2.90;;
66727;SDS011;53641;44.274;19.890;2022-07-23T05:18:07;6.82;;;3.10;;
66727;SDS011;53641;44.274;19.890;2022-07-23T05:20:33;12.05;;;4.30;;
66727;SDS011;53641;44.274;19.890;2022-07-23T05:22:59;13.98;;;3.10;;
66727;SDS011;53641;44.274;19.890;2022-07-23T05:25:24;6.65;;;2.88;;
66727;SDS011;53641;44.274;19.890;2022-07-23T05:27:50;13.18;;;2.90;;
66727;SDS011;53641;44.274;19.890;2022-07-23T05:30:16;7.43;;;3.17;;
66727;SDS011;53641;44.274;19.890;2022-07-23T05:32:42;8.85;;;3.20;;
66727;SDS011;53641;44.274;19.890;2022-07-23T05:35:07;10.27;;;3.13;;
66727;SDS011;53641;44.274;19.890;2022-07-23T05:37:33;7.30;;;3.08;;
66727;SDS011;53641;44.274;19.890;2022-07-23T05:40:00;6.82;;;3.45;;
66727;SDS011;53641;44.274;19.890;2022-07-23T05:42:27;5.50;;;2.88;;
66727;SDS011;53641;44.274;19.890;2022-07-23T05:44:52;6.70;;;2.92;;
66727;SDS011;53641;44.274;19.890;2022-07-23T05:47:18;9.88;;;2.95;;
66727;SDS011;53641;44.274;19.890;2022-07-23T05:49:44;9.32;;;3.08;;
66727;SDS011;53641;44.274;19.890;2022-07-23T05:52:10;10.57;;;3.45;;
66727;SDS011;53641;44.274;19.890;2022-07-23T05:54:35;5.38;;;2.70;;
66727;SDS011;53641;44.274;19.890;2022-07-23T05:57:02;9.82;;;2.90;;
66727;SDS011;53641;44.274;19.890;2022-07-23T05:59:28;9.50;;;3.47;;
66727;SDS011;53641;44.274;19.890;2022-07-23T06:01:54;11.75;;;2.85;;
66727;SDS011;53641;44.274;19.890;2022-07-23T06:04:20;5.75;;;2.85;;
66727;SDS011;53641;44.274;19.890;2022-07-23T06:06:46;5.85;;;2.90;;
66727;SDS011;53641;44.274;19.890;2022-07-23T06:09:12;7.35;;;3.10;;
66727;SDS011;53641;44.274;19.890;2022-07-23T06:11:39;4.40;;;2.83;;
66727;SDS011;53641;44.274;19.890;2022-07-23T06:14:07;13.88;;;2.92;;
66727;SDS011;53641;44.274;19.890;2022-07-23T06:16:33;7.07;;;3.22;;
66727;SDS011;53641;44.274;19.890;2022-07-23T06:18:58;9.15;;;3.30;;
66727;SDS011;53641;44.274;19.890;2022-07-23T06:21:24;9.45;;;3.08;;
66727;SDS011;53641;44.274;19.890;2022-07-23T06:23:50;6.50;;;3.60;;
66727;SDS011;53641;44.274;19.890;2022-07-23T06:26:15;7.60;;;2.90;;
66727;SDS011;53641;44.274;19.890;2022-07-23T06:28:41;9.43;;;3.15;;
66727;SDS011;53641;44.274;19.890;2022-07-23T06:31:07;8.63;;;2.92;;
66727;SDS011;53641;44.274;19.890;2022-07-23T06:33:33;10.50;;;3.97;;
66727;SDS011;53641;44.274;19.890;2022-07-23T06:35:59;4.30;;;2.95;;
66727;SDS011;53641;44.274;19.890;2022-07-23T06:38:25;5.85;;;3.42;;
66727;SDS011;53641;44.274;19.890;2022-07-23T06:40:51;11.35;;;3.22;;
66727;SDS011;53641;44.274;19.890;2022-07-23T06:43:17;10.65;;;3.38;;
66727;SDS011;53641;44.274;19.890;2022-07-23T06:45:42;9.75;;;3.13;;
66727;SDS011;53641;44.274;19.890;2022-07-23T06:48:08;9.98;;;3.78;;
66727;SDS011;53641;44.274;19.890;2022-07-23T06:50:34;9.35;;;3.58;;
66727;SDS011;53641;44.274;19.890;2022-07-23T06:53:00;10.30;;;3.72;;
66727;SDS011;53641;44.274;19.890;2022-07-23T06:55:26;13.27;;;4.70;;
66727;SDS011;53641;44.274;19.890;2022-07-23T06:57:52;7.03;;;4.38;;
66727;SDS011;53641;44.274;19.890;2022-07-23T07:00:18;8.95;;;4.30;;
66727;SDS011;53641;44.274;19.890;2022-07-23T07:02:43;7.97;;;4.38;;
66727;SDS011;53641;44.274;19.890;2022-07-23T07:05:09;13.43;;;3.92;;
66727;SDS011;53641;44.274;19.890;2022-07-23T07:07:35;12.18;;;4.57;;
66727;SDS011;53641;44.274;19.890;2022-07-23T07:10:02;16.48;;;5.10;;
66727;SDS011;53641;44.274;19.890;2022-07-23T07:12:28;11.68;;;4.25;;
66727;SDS011;53641;44.274;19.890;2022-07-23T07:14:54;9.45;;;4.70;;
66727;SDS011;53641;44.274;19.890;2022-07-23T07:17:20;15.73;;;4.07;;
66727;SDS011;53641;44.274;19.890;2022-07-23T07:19:46;13.93;;;4.43;;
66727;SDS011;53641;44.274;19.890;2022-07-23T07:22:12;10.10;;;4.35;;
66727;SDS011;53641;44.274;19.890;2022-07-23T07:24:37;14.10;;;4.10;;
66727;SDS011;53641;44.274;19.890;2022-07-23T07:27:03;13.20;;;5.03;;
66727;SDS011;53641;44.274;19.890;2022-07-23T07:29:29;11.15;;;4.15;;
66727;SDS011;53641;44.274;19.890;2022-07-23T07:31:55;13.73;;;4.82;;
66727;SDS011;53641;44.274;19.890;2022-07-23T07:34:20;24.10;;;5.05;;
66727;SDS011;53641;44.274;19.890;2022-07-23T07:36:46;13.93;;;5.22;;
66727;SDS011;53641;44.274;19.890;2022-07-23T07:39:12;11.18;;;4.85;;
66727;SDS011;53641;44.274;19.890;2022-07-23T07:41:39;11.13;;;4.78;;
66727;SDS011;53641;44.274;19.890;2022-07-23T07:44:05;12.20;;;4.65;;
66727;SDS011;53641;44.274;19.890;2022-07-23T07:48:59;17.10;;;4.78;;
66727;SDS011;53641;44.274;19.890;2022-07-23T07:51:25;12.45;;;5.00;;
66727;SDS011;53641;44.274;19.890;2022-07-23T07:53:51;17.00;;;4.80;;
66727;SDS011;53641;44.274;19.890;2022-07-23T07:56:17;12.00;;;5.07;;
66727;SDS011;53641;44.274;19.890;2022-07-23T07:58:43;13.65;;;4.40;;
66727;SDS011;53641;44.274;19.890;2022-07-23T08:01:09;18.42;;;5.78;;
66727;SDS011;53641;44.274;19.890;2022-07-23T08:03:34;12.52;;;4.68;;
66727;SDS011;53641;44.274;19.890;2022-07-23T08:06:00;9.30;;;4.35;;
66727;SDS011;53641;44.274;19.890;2022-07-23T08:08:26;8.23;;;4.20;;
66727;SDS011;53641;44.274;19.890;2022-07-23T08:10:52;9.93;;;4.60;;
66727;SDS011;53641;44.274;19.890;2022-07-23T08:13:18;9.32;;;4.22;;
66727;SDS011;53641;44.274;19.890;2022-07-23T08:15:43;12.65;;;5.13;;
66727;SDS011;53641;44.274;19.890;2022-07-23T08:18:09;11.10;;;5.68;;
66727;SDS011;53641;44.274;19.890;2022-07-23T08:20:35;16.88;;;5.07;;
66727;SDS011;53641;44.274;19.890;2022-07-23T08:23:05;14.32;;;4.47;;
66727;SDS011;53641;44.274;19.890;2022-07-23T08:25:33;10.50;;;4.25;;
66727;SDS011;53641;44.274;19.890;2022-07-23T08:28:02;9.20;;;4.88;;
66727;SDS011;53641;44.274;19.890;2022-07-23T08:30:30;13.15;;;4.43;;
66727;SDS011;53641;44.274;19.890;2022-07-23T08:32:57;12.68;;;5.55;;
66727;SDS011;53641;44.274;19.890;2022-07-23T08:35:33;7.05;;;4.50;;
66727;SDS011;53641;44.274;19.890;2022-07-23T08:38:02;12.35;;;4.70;;
66727;SDS011;53641;44.274;19.890;2022-07-23T08:40:33;5.25;;;4.75;;
66727;SDS011;53641;44.274;19.890;2022-07-23T08:43:00;7.78;;;5.30;;
66727;SDS011;53641;44.274;19.890;2022-07-23T08:45:29;10.95;;;5.07;;
66727;SDS011;53641;44.274;19.890;2022-07-23T08:47:56;8.63;;;5.15;;
66727;SDS011;53641;44.274;19.890;2022-07-23T08:50:26;7.07;;;4.47;;
66727;SDS011;53641;44.274;19.890;2022-07-23T08:52:52;9.52;;;4.40;;
66727;SDS011;53641;44.274;19.890;2022-07-23T08:55:19;7.00;;;4.82;;
66727;SDS011;53641;44.274;19.890;2022-07-23T08:57:50;6.22;;;4.22;;
66727;SDS011;53641;44.274;19.890;2022-07-23T09:00:19;8.75;;;4.63;;
66727;SDS011;53641;44.274;19.890;2022-07-23T09:02:45;5.95;;;4.45;;
66727;SDS011;53641;44.274;19.890;2022-07-23T09:05:12;7.88;;;4.95;;
66727;SDS011;53641;44.274;19.890;2022-07-23T09:08:13;5.25;;;4.70;;
66727;SDS011;53641;44.274;19.890;2022-07-23T09:10:46;13.05;;;4.88;;
66727;SDS011;53641;44.274;19.890;2022-07-23T09:13:35;6.20;;;4.35;;
66727;SDS011;53641;44.274;19.890;2022-07-23T09:16:11;6.55;;;4.65;;
66727;SDS011;53641;44.274;19.890;2022-07-23T09:18:47;7.43;;;4.57;;
66727;SDS011;53641;44.274;19.890;2022-07-23T09:21:15;7.00;;;4.22;;
66727;SDS011;53641;44.274;19.890;2022-07-23T09:23:44;7.07;;;4.28;;
66727;SDS011;53641;44.274;19.890;2022-07-23T09:26:18;6.30;;;3.97;;
66727;SDS011;53641;44.274;19.890;2022-07-23T09:28:59;11.15;;;4.32;;
66727;SDS011;53641;44.274;19.890;2022-07-23T09:31:51;5.47;;;3.70;;
66727;SDS011;53641;44.274;19.890;2022-07-23T09:34:28;8.43;;;4.55;;
66727;SDS011;53641;44.274;19.890;2022-07-23T09:36:58;7.43;;;3.72;;
66727;SDS011;53641;44.274;19.890;2022-07-23T09:39:35;7.65;;;3.42;;
66727;SDS011;53641;44.274;19.890;2022-07-23T09:42:15;8.23;;;3.50;;
66727;SDS011;53641;44.274;19.890;2022-07-23T09:44:43;10.60;;;3.65;;
66727;SDS011;53641;44.274;19.890;2022-07-23T09:47:10;7.78;;;3.15;;
66727;SDS011;53641;44.274;19.890;2022-07-23T09:49:35;6.65;;;3.10;;
66727;SDS011;53641;44.274;19.890;2022-07-23T09:52:01;4.95;;;3.10;;
66727;SDS011;53641;44.274;19.890;2022-07-23T09:54:30;8.05;;;3.10;;
66727;SDS011;53641;44.274;19.890;2022-07-23T09:57:00;9.77;;;2.65;;
66727;SDS011;53641;44.274;19.890;2022-07-23T09:59:31;8.15;;;2.78;;
66727;SDS011;53641;44.274;19.890;2022-07-23T10:01:58;5.15;;;3.20;;
66727;SDS011;53641;44.274;19.890;2022-07-23T10:04:25;7.10;;;3.10;;
66727;SDS011;53641;44.274;19.890;2022-07-23T10:06:54;8.38;;;2.63;;
66727;SDS011;53641;44.274;19.890;2022-07-23T10:09:22;8.07;;;2.80;;
66727;SDS011;53641;44.274;19.890;2022-07-23T10:11:49;6.05;;;3.00;;
66727;SDS011;53641;44.274;19.890;2022-07-23T10:14:17;6.72;;;3.10;;
66727;SDS011;53641;44.274;19.890;2022-07-23T10:16:43;9.00;;;3.15;;
66727;SDS011;53641;44.274;19.890;2022-07-23T10:19:09;5.20;;;2.90;;
66727;SDS011;53641;44.274;19.890;2022-07-23T10:21:42;6.68;;;2.65;;
66727;SDS011;53641;44.274;19.890;2022-07-23T10:25:31;9.98;;;3.10;;
66727;SDS011;53641;44.274;19.890;2022-07-23T10:27:33;5.57;;;2.85;;
66727;SDS011;53641;44.274;19.890;2022-07-23T10:30:09;6.90;;;2.63;;
66727;SDS011;53641;44.274;19.890;2022-07-23T10:32:40;5.00;;;2.78;;
66727;SDS011;53641;44.274;19.890;2022-07-23T10:35:26;10.48;;;2.90;;
66727;SDS011;53641;44.274;19.890;2022-07-23T10:38:13;8.40;;;3.22;;
66727;SDS011;53641;44.274;19.890;2022-07-23T10:40:54;6.82;;;2.83;;
66727;SDS011;53641;44.274;19.890;2022-07-23T10:43:21;7.55;;;2.72;;
66727;SDS011;53641;44.274;19.890;2022-07-23T10:45:47;8.85;;;2.80;;
66727;SDS011;53641;44.274;19.890;2022-07-23T10:48:15;6.10;;;3.03;;
66727;SDS011;53641;44.274;19.890;2022-07-23T10:50:42;9.75;;;2.85;;
66727;SDS011;53641;44.274;19.890;2022-07-23T10:53:29;4.88;;;3.20;;
66727;SDS011;53641;44.274;19.890;2022-07-23T10:56:51;5.60;;;3.22;;
66727;SDS011;53641;44.274;19.890;2022-07-23T10:59:25;10.73;;;2.83;;
66727;SDS011;53641;44.274;19.890;2022-07-23T11:01:50;7.10;;;3.03;;
66727;SDS011;53641;44.274;19.890;2022-07-23T11:04:16;7.75;;;2.78;;
66727;SDS011;53641;44.274;19.890;2022-07-23T11:07:06;10.63;;;3.13;;
66727;SDS011;53641;44.274;19.890;2022-07-23T11:09:41;8.65;;;2.92;;
66727;SDS011;53641;44.274;19.890;2022-07-23T11:12:31;7.50;;;3.30;;
66727;SDS011;53641;44.274;19.890;2022-07-23T11:15:04;10.80;;;3.00;;
66727;SDS011;53641;44.274;19.890;2022-07-23T11:17:59;8.52;;;3.30;;
66727;SDS011;53641;44.274;19.890;2022-07-23T11:20:25;10.30;;;3.78;;
66727;SDS011;53641;44.274;19.890;2022-07-23T11:22:52;9.82;;;3.00;;
66727;SDS011;53641;44.274;19.890;2022-07-23T11:25:30;5.57;;;3.33;;
66727;SDS011;53641;44.274;19.890;2022-07-23T11:28:08;8.20;;;3.03;;
66727;SDS011;53641;44.274;19.890;2022-07-23T11:30:43;8.02;;;3.50;;
66727;SDS011;53641;44.274;19.890;2022-07-23T11:33:18;6.68;;;3.28;;
66727;SDS011;53641;44.274;19.890;2022-07-23T11:35:45;6.63;;;2.95;;
66727;SDS011;53641;44.274;19.890;2022-07-23T11:38:14;8.75;;;3.53;;
66727;SDS011;53641;44.274;19.890;2022-07-23T11:40:43;9.45;;;3.20;;
66727;SDS011;53641;44.274;19.890;2022-07-23T11:43:10;6.40;;;3.30;;
66727;SDS011;53641;44.274;19.890;2022-07-23T11:45:40;6.35;;;3.13;;
66727;SDS011;53641;44.274;19.890;2022-07-23T11:48:08;11.93;;;3.00;;
66727;SDS011;53641;44.274;19.890;2022-07-23T11:50:41;9.40;;;3.13;;
66727;SDS011;53641;44.274;19.890;2022-07-23T11:53:07;8.18;;;3.03;;
66727;SDS011;53641;44.274;19.890;2022-07-23T11:55:33;5.47;;;2.65;;
66727;SDS011;53641;44.274;19.890;2022-07-23T11:57:59;8.07;;;3.13;;
66727;SDS011;53641;44.274;19.890;2022-07-23T12:00:27;5.78;;;3.00;;
66727;SDS011;53641;44.274;19.890;2022-07-23T12:02:56;11.57;;;3.67;;
66727;SDS011;53641;44.274;19.890;2022-07-23T12:05:25;5.72;;;3.10;;
66727;SDS011;53641;44.274;19.890;2022-07-23T12:07:55;5.25;;;3.10;;
66727;SDS011;53641;44.274;19.890;2022-07-23T12:10:23;5.53;;;3.40;;
66727;SDS011;53641;44.274;19.890;2022-07-23T12:12:58;6.68;;;3.65;;
66727;SDS011;53641;44.274;19.890;2022-07-23T12:15:28;10.43;;;3.20;;
66727;SDS011;53641;44.274;19.890;2022-07-23T12:17:56;4.80;;;3.08;;
66727;SDS011;53641;44.274;19.890;2022-07-23T12:20:27;11.73;;;3.55;;
66727;SDS011;53641;44.274;19.890;2022-07-23T12:22:58;7.00;;;3.50;;
66727;SDS011;53641;44.274;19.890;2022-07-23T12:25:26;8.15;;;3.58;;
66727;SDS011;53641;44.274;19.890;2022-07-23T12:28:05;6.68;;;3.70;;
66727;SDS011;53641;44.274;19.890;2022-07-23T12:30:37;4.72;;;3.08;;
66727;SDS011;53641;44.274;19.890;2022-07-23T12:33:05;5.75;;;3.40;;
66727;SDS011;53641;44.274;19.890;2022-07-23T12:35:33;4.95;;;3.10;;
66727;SDS011;53641;44.274;19.890;2022-07-23T12:38:11;11.88;;;3.10;;
66727;SDS011;53641;44.274;19.890;2022-07-23T12:40:54;9.15;;;3.33;;
66727;SDS011;53641;44.274;19.890;2022-07-23T12:43:25;6.35;;;3.33;;
66727;SDS011;53641;44.274;19.890;2022-07-23T12:45:54;12.63;;;3.80;;
66727;SDS011;53641;44.274;19.890;2022-07-23T12:48:39;9.32;;;3.33;;
66727;SDS011;53641;44.274;19.890;2022-07-23T12:51:19;7.75;;;3.22;;
66727;SDS011;53641;44.274;19.890;2022-07-23T12:53:48;11.82;;;3.13;;
66727;SDS011;53641;44.274;19.890;2022-07-23T12:56:16;13.30;;;3.50;;
66727;SDS011;53641;44.274;19.890;2022-07-23T12:58:54;9.10;;;2.93;;
66727;SDS011;53641;44.274;19.890;2022-07-23T13:01:32;11.45;;;5.35;;
66727;SDS011;53641;44.274;19.890;2022-07-23T13:04:04;7.47;;;3.15;;
66727;SDS011;53641;44.274;19.890;2022-07-23T13:06:33;6.13;;;3.05;;
66727;SDS011;53641;44.274;19.890;2022-07-23T13:09:00;8.88;;;3.22;;
66727;SDS011;53641;44.274;19.890;2022-07-23T13:11:27;3.92;;;2.85;;
66727;SDS011;53641;44.274;19.890;2022-07-23T13:13:52;6.32;;;3.42;;
66727;SDS011;53641;44.274;19.890;2022-07-23T13:16:18;7.50;;;3.15;;
66727;SDS011;53641;44.274;19.890;2022-07-23T13:18:44;7.45;;;2.80;;
66727;SDS011;53641;44.274;19.890;2022-07-23T13:21:10;6.00;;;3.47;;
66727;SDS011;53641;44.274;19.890;2022-07-23T13:23:36;4.47;;;3.40;;
66727;SDS011;53641;44.274;19.890;2022-07-23T13:26:02;5.90;;;3.25;;
66727;SDS011;53641;44.274;19.890;2022-07-23T13:28:28;7.38;;;3.17;;
66727;SDS011;53641;44.274;19.890;2022-07-23T13:30:55;10.25;;;3.20;;
66727;SDS011;53641;44.274;19.890;2022-07-23T13:33:22;4.85;;;3.25;;
66727;SDS011;53641;44.274;19.890;2022-07-23T13:35:49;7.00;;;3.75;;
66727;SDS011;53641;44.274;19.890;2022-07-23T13:38:17;7.18;;;3.60;;
66727;SDS011;53641;44.274;19.890;2022-07-23T13:40:44;8.90;;;4.00;;
66727;SDS011;53641;44.274;19.890;2022-07-23T13:43:13;10.00;;;4.38;;
66727;SDS011;53641;44.274;19.890;2022-07-23T13:45:40;5.40;;;3.13;;
66727;SDS011;53641;44.274;19.890;2022-07-23T13:50:36;8.07;;;3.50;;
66727;SDS011;53641;44.274;19.890;2022-07-23T13:53:05;6.13;;;3.08;;
66727;SDS011;53641;44.274;19.890;2022-07-23T13:55:34;15.55;;;3.58;;
66727;SDS011;53641;44.274;19.890;2022-07-23T13:58:00;7.63;;;3.60;;
66727;SDS011;53641;44.274;19.890;2022-07-23T14:00:27;4.95;;;3.25;;
66727;SDS011;53641;44.274;19.890;2022-07-23T14:02:55;6.00;;;3.20;;
66727;SDS011;53641;44.274;19.890;2022-07-23T14:05:21;10.23;;;3.53;;
66727;SDS011;53641;44.274;19.890;2022-07-23T14:07:47;4.55;;;2.90;;
66727;SDS011;53641;44.274;19.890;2022-07-23T14:10:15;5.45;;;3.08;;
66727;SDS011;53641;44.274;19.890;2022-07-23T14:12:42;7.45;;;3.72;;
66727;SDS011;53641;44.274;19.890;2022-07-23T14:15:08;10.20;;;3.20;;
66727;SDS011;53641;44.274;19.890;2022-07-23T14:17:38;6.45;;;3.00;;
66727;SDS011;53641;44.274;19.890;2022-07-23T14:20:07;6.28;;;3.15;;
66727;SDS011;53641;44.274;19.890;2022-07-23T14:22:33;11.45;;;3.45;;
66727;SDS011;53641;44.274;19.890;2022-07-23T14:24:59;8.27;;;3.40;;
66727;SDS011;53641;44.274;19.890;2022-07-23T14:27:26;9.00;;;3.38;;
66727;SDS011;53641;44.274;19.890;2022-07-23T14:29:53;8.95;;;3.33;;
66727;SDS011;53641;44.274;19.890;2022-07-23T14:32:19;9.65;;;3.53;;
66727;SDS011;53641;44.274;19.890;2022-07-23T14:34:46;4.70;;;3.00;;
66727;SDS011;53641;44.274;19.890;2022-07-23T14:37:12;12.48;;;3.15;;
66727;SDS011;53641;44.274;19.890;2022-07-23T14:39:38;5.72;;;3.42;;
66727;SDS011;53641;44.274;19.890;2022-07-23T14:42:05;4.70;;;2.92;;